Ridgway, Illinois
Current Conditions -  °F | °C
As of 5:55 PM on Friday 28 Nov 2014 (Local Time) from KHSB Reporting Station
Clear Clear  
Wind Chill: 35°   Ceiling: Unl
Heat Index: 40°   Visibility: 10mi
Dew Point: 30°   Wind: 8mph
Humidity: 67%   Direction: 170°S
Pressure: 30.07"   Gusts: NA
Location:  37.8°N, 88.26°W
Report Text: KHSB 282355Z AUTO 17007KT 10SM CLR 05/M01 A3007 RMK AO2 T00461010 10080 20046
Loading
Personal Weather Stations






























Interactive Weather Map New forecast layout! Learn more

10-Day Weather Forecast

Advertisements
Track Severe Weather on mobile